sensor_id;sensor_type;location;lat;lon;timestamp;temperature;humidity
60909;DHT22;46780;48.128;-1.704;2023-07-02T00:01:26;16.70;91.80
60909;DHT22;46780;48.128;-1.704;2023-07-02T00:03:54;16.70;91.90
60909;DHT22;46780;48.128;-1.704;2023-07-02T00:06:21;16.70;92.00
60909;DHT22;46780;48.128;-1.704;2023-07-02T00:08:47;16.70;92.10
60909;DHT22;46780;48.128;-1.704;2023-07-02T00:11:16;16.70;92.20
60909;DHT22;46780;48.128;-1.704;2023-07-02T00:13:42;16.70;92.30
60909;DHT22;46780;48.128;-1.704;2023-07-02T00:16:09;16.60;92.40
60909;DHT22;46780;48.128;-1.704;2023-07-02T00:18:35;16.70;92.60
60909;DHT22;46780;48.128;-1.704;2023-07-02T00:21:05;16.60;92.70
60909;DHT22;46780;48.128;-1.704;2023-07-02T00:23:31;16.70;92.80
60909;DHT22;46780;48.128;-1.704;2023-07-02T00:25:58;16.60;92.90
60909;DHT22;46780;48.128;-1.704;2023-07-02T00:28:24;16.60;93.10
60909;DHT22;46780;48.128;-1.704;2023-07-02T00:30:50;16.60;93.40
60909;DHT22;46780;48.128;-1.704;2023-07-02T00:33:17;16.70;93.60
60909;DHT22;46780;48.128;-1.704;2023-07-02T00:35:43;16.70;93.80
60909;DHT22;46780;48.128;-1.704;2023-07-02T00:38:11;16.70;93.90
60909;DHT22;46780;48.128;-1.704;2023-07-02T00:40:38;16.70;94.00
60909;DHT22;46780;48.128;-1.704;2023-07-02T00:43:04;16.70;94.20
60909;DHT22;46780;48.128;-1.704;2023-07-02T00:45:31;16.70;94.40
60909;DHT22;46780;48.128;-1.704;2023-07-02T00:47:57;16.70;94.50
60909;DHT22;46780;48.128;-1.704;2023-07-02T00:50:25;16.70;94.60
60909;DHT22;46780;48.128;-1.704;2023-07-02T00:52:52;16.60;94.60
60909;DHT22;46780;48.128;-1.704;2023-07-02T00:55:20;16.60;94.70
60909;DHT22;46780;48.128;-1.704;2023-07-02T00:57:47;16.60;94.70
60909;DHT22;46780;48.128;-1.704;2023-07-02T01:00:14;16.50;94.70
60909;DHT22;46780;48.128;-1.704;2023-07-02T01:02:40;16.50;94.90
60909;DHT22;46780;48.128;-1.704;2023-07-02T01:05:07;16.30;95.30
60909;DHT22;46780;48.128;-1.704;2023-07-02T01:07:37;16.20;95.60
60909;DHT22;46780;48.128;-1.704;2023-07-02T01:10:04;16.20;96.00
60909;DHT22;46780;48.128;-1.704;2023-07-02T01:12:33;16.10;96.40
60909;DHT22;46780;48.128;-1.704;2023-07-02T01:15:02;16.00;96.80
60909;DHT22;46780;48.128;-1.704;2023-07-02T01:17:30;15.90;96.90
60909;DHT22;46780;48.128;-1.704;2023-07-02T01:19:58;15.90;97.00
60909;DHT22;46780;48.128;-1.704;2023-07-02T01:22:27;15.90;97.10
60909;DHT22;46780;48.128;-1.704;2023-07-02T01:24:54;15.80;97.20
60909;DHT22;46780;48.128;-1.704;2023-07-02T01:27:21;15.80;97.70
60909;DHT22;46780;48.128;-1.704;2023-07-02T01:29:50;15.70;97.40
60909;DHT22;46780;48.128;-1.704;2023-07-02T01:32:17;15.70;97.40
60909;DHT22;46780;48.128;-1.704;2023-07-02T01:34:44;15.70;97.40
60909;DHT22;46780;48.128;-1.704;2023-07-02T01:37:12;15.70;97.50
60909;DHT22;46780;48.128;-1.704;2023-07-02T01:39:38;15.70;97.70
60909;DHT22;46780;48.128;-1.704;2023-07-02T01:42:09;15.60;97.70
60909;DHT22;46780;48.128;-1.704;2023-07-02T01:44:36;15.60;97.90
60909;DHT22;46780;48.128;-1.704;2023-07-02T01:47:03;15.60;98.00
60909;DHT22;46780;48.128;-1.704;2023-07-02T01:49:29;15.60;98.10
60909;DHT22;46780;48.128;-1.704;2023-07-02T01:51:57;15.50;98.30
60909;DHT22;46780;48.128;-1.704;2023-07-02T01:54:26;15.50;98.50
60909;DHT22;46780;48.128;-1.704;2023-07-02T01:56:52;15.50;98.80
60909;DHT22;46780;48.128;-1.704;2023-07-02T01:59:19;15.40;98.90
60909;DHT22;46780;48.128;-1.704;2023-07-02T02:01:45;15.40;99.20
60909;DHT22;46780;48.128;-1.704;2023-07-02T02:04:12;15.30;99.50
60909;DHT22;46780;48.128;-1.704;2023-07-02T02:06:39;15.20;99.80
60909;DHT22;46780;48.128;-1.704;2023-07-02T02:09:06;15.20;99.90
60909;DHT22;46780;48.128;-1.704;2023-07-02T02:11:36;15.20;99.90
60909;DHT22;46780;48.128;-1.704;2023-07-02T02:14:03;15.20;99.90
60909;DHT22;46780;48.128;-1.704;2023-07-02T02:16:30;15.20;99.90
60909;DHT22;46780;48.128;-1.704;2023-07-02T02:18:56;15.20;99.90
60909;DHT22;46780;48.128;-1.704;2023-07-02T02:21:23;15.10;99.90
60909;DHT22;46780;48.128;-1.704;2023-07-02T02:23:49;15.10;99.90
60909;DHT22;46780;48.128;-1.704;2023-07-02T02:26:16;15.10;99.90
60909;DHT22;46780;48.128;-1.704;2023-07-02T02:28:43;15.10;99.90
60909;DHT22;46780;48.128;-1.704;2023-07-02T02:31:10;15.10;99.90
60909;DHT22;46780;48.128;-1.704;2023-07-02T02:33:36;15.10;99.90
60909;DHT22;46780;48.128;-1.704;2023-07-02T02:36:04;15.10;99.90
60909;DHT22;46780;48.128;-1.704;2023-07-02T02:38:30;15.10;99.90
60909;DHT22;46780;48.128;-1.704;2023-07-02T02:40:57;15.10;99.90
60909;DHT22;46780;48.128;-1.704;2023-07-02T02:43:23;15.10;99.90
60909;DHT22;46780;48.128;-1.704;2023-07-02T02:45:51;15.10;99.90
60909;DHT22;46780;48.128;-1.704;2023-07-02T02:48:18;15.10;99.90
60909;DHT22;46780;48.128;-1.704;2023-07-02T02:50:45;15.10;99.90
60909;DHT22;46780;48.128;-1.704;2023-07-02T02:53:11;15.10;99.90
60909;DHT22;46780;48.128;-1.704;2023-07-02T02:55:38;15.00;99.90
60909;DHT22;46780;48.128;-1.704;2023-07-02T02:58:04;15.00;99.90
60909;DHT22;46780;48.128;-1.704;2023-07-02T03:00:31;15.00;99.90
60909;DHT22;46780;48.128;-1.704;2023-07-02T03:02:59;15.00;99.90
60909;DHT22;46780;48.128;-1.704;2023-07-02T03:05:28;15.00;99.90
60909;DHT22;46780;48.128;-1.704;2023-07-02T03:07:57;14.90;99.90
60909;DHT22;46780;48.128;-1.704;2023-07-02T03:10:26;14.90;99.90
60909;DHT22;46780;48.128;-1.704;2023-07-02T03:12:55;14.90;99.90
60909;DHT22;46780;48.128;-1.704;2023-07-02T03:15:23;14.90;99.90
60909;DHT22;46780;48.128;-1.704;2023-07-02T03:17:52;14.90;99.90
60909;DHT22;46780;48.128;-1.704;2023-07-02T03:20:22;15.00;99.90
60909;DHT22;46780;48.128;-1.704;2023-07-02T03:22:50;15.00;99.90
60909;DHT22;46780;48.128;-1.704;2023-07-02T03:25:19;15.00;99.90
60909;DHT22;46780;48.128;-1.704;2023-07-02T03:27:46;15.00;99.90
60909;DHT22;46780;48.128;-1.704;2023-07-02T03:30:14;15.00;99.90
60909;DHT22;46780;48.128;-1.704;2023-07-02T03:32:41;15.10;99.90
60909;DHT22;46780;48.128;-1.704;2023-07-02T03:35:09;15.20;99.90
60909;DHT22;46780;48.128;-1.704;2023-07-02T03:37:38;15.20;99.90
60909;DHT22;46780;48.128;-1.704;2023-07-02T03:40:08;15.20;99.90
60909;DHT22;46780;48.128;-1.704;2023-07-02T03:42:35;15.20;99.90
60909;DHT22;46780;48.128;-1.704;2023-07-02T03:45:01;15.20;99.90
60909;DHT22;46780;48.128;-1.704;2023-07-02T03:47:28;15.20;99.90
60909;DHT22;46780;48.128;-1.704;2023-07-02T03:49:55;15.20;99.90
60909;DHT22;46780;48.128;-1.704;2023-07-02T03:52:22;15.20;99.90
60909;DHT22;46780;48.128;-1.704;2023-07-02T03:54:50;15.30;99.90
60909;DHT22;46780;48.128;-1.704;2023-07-02T03:57:17;15.20;99.90
60909;DHT22;46780;48.128;-1.704;2023-07-02T03:59:43;15.20;99.90
60909;DHT22;46780;48.128;-1.704;2023-07-02T04:02:10;15.20;99.90
60909;DHT22;46780;48.128;-1.704;2023-07-02T04:04:37;15.20;99.90
60909;DHT22;46780;48.128;-1.704;2023-07-02T04:07:04;15.10;99.90
60909;DHT22;46780;48.128;-1.704;2023-07-02T04:09:31;15.20;99.90
60909;DHT22;46780;48.128;-1.704;2023-07-02T04:11:59;15.20;99.90
60909;DHT22;46780;48.128;-1.704;2023-07-02T04:14:26;15.20;99.90
60909;DHT22;46780;48.128;-1.704;2023-07-02T04:16:52;15.20;99.90
60909;DHT22;46780;48.128;-1.704;2023-07-02T04:19:19;15.20;99.90
60909;DHT22;46780;48.128;-1.704;2023-07-02T04:21:46;15.20;99.90
60909;DHT22;46780;48.128;-1.704;2023-07-02T04:24:12;15.10;99.90
60909;DHT22;46780;48.128;-1.704;2023-07-02T04:26:39;15.10;99.90
60909;DHT22;46780;48.128;-1.704;2023-07-02T04:29:07;15.10;99.90
60909;DHT22;46780;48.128;-1.704;2023-07-02T04:31:34;15.00;99.90
60909;DHT22;46780;48.128;-1.704;2023-07-02T04:34:00;15.00;99.90
60909;DHT22;46780;48.128;-1.704;2023-07-02T04:36:28;15.00;99.90
60909;DHT22;46780;48.128;-1.704;2023-07-02T04:38:55;15.00;99.90
60909;DHT22;46780;48.128;-1.704;2023-07-02T04:41:21;15.10;99.90
60909;DHT22;46780;48.128;-1.704;2023-07-02T04:43:47;15.10;99.90
60909;DHT22;46780;48.128;-1.704;2023-07-02T04:46:15;15.10;99.90
60909;DHT22;46780;48.128;-1.704;2023-07-02T04:48:42;15.10;99.90
60909;DHT22;46780;48.128;-1.704;2023-07-02T04:51:08;15.00;99.90
60909;DHT22;46780;48.128;-1.704;2023-07-02T04:53:35;15.00;99.90
60909;DHT22;46780;48.128;-1.704;2023-07-02T04:56:01;15.00;99.90
60909;DHT22;46780;48.128;-1.704;2023-07-02T04:58:27;14.90;99.90
60909;DHT22;46780;48.128;-1.704;2023-07-02T05:00:54;14.90;99.90
60909;DHT22;46780;48.128;-1.704;2023-07-02T05:03:22;14.90;99.90
60909;DHT22;46780;48.128;-1.704;2023-07-02T05:05:48;14.90;99.90
60909;DHT22;46780;48.128;-1.704;2023-07-02T05:08:15;14.90;99.90
60909;DHT22;46780;48.128;-1.704;2023-07-02T05:10:41;15.00;99.90
60909;DHT22;46780;48.128;-1.704;2023-07-02T05:13:08;15.00;99.90
60909;DHT22;46780;48.128;-1.704;2023-07-02T05:15:34;15.10;99.90
60909;DHT22;46780;48.128;-1.704;2023-07-02T05:18:00;15.10;99.90
60909;DHT22;46780;48.128;-1.704;2023-07-02T05:20:28;15.10;99.90
60909;DHT22;46780;48.128;-1.704;2023-07-02T05:22:55;15.10;99.90
60909;DHT22;46780;48.128;-1.704;2023-07-02T05:25:21;15.20;99.90
60909;DHT22;46780;48.128;-1.704;2023-07-02T05:27:48;15.20;99.90
60909;DHT22;46780;48.128;-1.704;2023-07-02T05:30:14;15.30;99.90
60909;DHT22;46780;48.128;-1.704;2023-07-02T05:32:42;15.30;99.90
60909;DHT22;46780;48.128;-1.704;2023-07-02T05:35:08;15.20;99.90
60909;DHT22;46780;48.128;-1.704;2023-07-02T05:37:36;15.30;99.90
60909;DHT22;46780;48.128;-1.704;2023-07-02T05:40:03;15.30;99.90
60909;DHT22;46780;48.128;-1.704;2023-07-02T05:42:30;15.30;99.90
60909;DHT22;46780;48.128;-1.704;2023-07-02T05:44:56;15.30;99.90
60909;DHT22;46780;48.128;-1.704;2023-07-02T05:47:23;15.40;99.90
60909;DHT22;46780;48.128;-1.704;2023-07-02T05:49:49;15.40;99.90
60909;DHT22;46780;48.128;-1.704;2023-07-02T05:52:16;15.40;99.90
60909;DHT22;46780;48.128;-1.704;2023-07-02T05:54:43;15.40;99.90
60909;DHT22;46780;48.128;-1.704;2023-07-02T05:57:10;15.50;99.90
60909;DHT22;46780;48.128;-1.704;2023-07-02T05:59:38;15.50;99.90
60909;DHT22;46780;48.128;-1.704;2023-07-02T06:02:04;15.50;99.90
60909;DHT22;46780;48.128;-1.704;2023-07-02T06:04:30;15.50;99.90
60909;DHT22;46780;48.128;-1.704;2023-07-02T06:06:57;15.50;99.90
60909;DHT22;46780;48.128;-1.704;2023-07-02T06:09:23;15.60;99.90
60909;DHT22;46780;48.128;-1.704;2023-07-02T06:11:51;15.70;99.90
60909;DHT22;46780;48.128;-1.704;2023-07-02T06:14:18;15.70;99.90
60909;DHT22;46780;48.128;-1.704;2023-07-02T06:16:44;15.80;99.90
60909;DHT22;46780;48.128;-1.704;2023-07-02T06:19:11;15.90;99.90
60909;DHT22;46780;48.128;-1.704;2023-07-02T06:21:37;15.90;99.90
60909;DHT22;46780;48.128;-1.704;2023-07-02T06:24:04;16.00;99.90
60909;DHT22;46780;48.128;-1.704;2023-07-02T06:26:31;16.10;99.90
60909;DHT22;46780;48.128;-1.704;2023-07-02T06:28:59;16.10;99.90
60909;DHT22;46780;48.128;-1.704;2023-07-02T06:31:25;16.20;99.90
60909;DHT22;46780;48.128;-1.704;2023-07-02T06:33:52;16.10;99.90
60909;DHT22;46780;48.128;-1.704;2023-07-02T06:36:19;16.10;99.90
60909;DHT22;46780;48.128;-1.704;2023-07-02T06:38:45;16.20;99.90
60909;DHT22;46780;48.128;-1.704;2023-07-02T06:41:12;16.10;99.90
60909;DHT22;46780;48.128;-1.704;2023-07-02T06:43:38;16.20;99.90
60909;DHT22;46780;48.128;-1.704;2023-07-02T06:46:06;16.30;99.90
60909;DHT22;46780;48.128;-1.704;2023-07-02T06:48:32;16.30;99.90
60909;DHT22;46780;48.128;-1.704;2023-07-02T06:50:59;16.40;99.90
60909;DHT22;46780;48.128;-1.704;2023-07-02T06:53:25;16.50;99.90
60909;DHT22;46780;48.128;-1.704;2023-07-02T06:55:52;16.50;99.90
60909;DHT22;46780;48.128;-1.704;2023-07-02T06:58:18;16.60;99.90
60909;DHT22;46780;48.128;-1.704;2023-07-02T07:00:45;16.60;99.90
60909;DHT22;46780;48.128;-1.704;2023-07-02T07:03:13;16.70;99.90
60909;DHT22;46780;48.128;-1.704;2023-07-02T07:05:39;16.70;99.90
60909;DHT22;46780;48.128;-1.704;2023-07-02T07:08:06;16.80;99.90
60909;DHT22;46780;48.128;-1.704;2023-07-02T07:10:32;16.90;99.90
60909;DHT22;46780;48.128;-1.704;2023-07-02T07:12:59;17.00;99.90
60909;DHT22;46780;48.128;-1.704;2023-07-02T07:15:25;17.00;99.90
60909;DHT22;46780;48.128;-1.704;2023-07-02T07:17:52;17.10;99.90
60909;DHT22;46780;48.128;-1.704;2023-07-02T07:20:20;17.20;99.90
60909;DHT22;46780;48.128;-1.704;2023-07-02T07:22:46;17.20;99.90
60909;DHT22;46780;48.128;-1.704;2023-07-02T07:25:13;17.30;99.90
60909;DHT22;46780;48.128;-1.704;2023-07-02T07:27:39;17.40;99.90
60909;DHT22;46780;48.128;-1.704;2023-07-02T07:30:07;17.50;99.90
60909;DHT22;46780;48.128;-1.704;2023-07-02T07:32:34;17.50;99.90
60909;DHT22;46780;48.128;-1.704;2023-07-02T07:35:01;17.50;99.90
60909;DHT22;46780;48.128;-1.704;2023-07-02T07:37:29;17.50;99.90
60909;DHT22;46780;48.128;-1.704;2023-07-02T07:39:55;17.50;99.90
60909;DHT22;46780;48.128;-1.704;2023-07-02T07:42:22;17.50;99.90
60909;DHT22;46780;48.128;-1.704;2023-07-02T07:44:48;17.60;99.90
60909;DHT22;46780;48.128;-1.704;2023-07-02T07:47:14;17.70;99.30
60909;DHT22;46780;48.128;-1.704;2023-07-02T07:49:41;17.80;99.30
60909;DHT22;46780;48.128;-1.704;2023-07-02T07:52:07;17.90;98.70
60909;DHT22;46780;48.128;-1.704;2023-07-02T07:54:35;18.10;97.70
60909;DHT22;46780;48.128;-1.704;2023-07-02T07:57:03;18.20;97.60
60909;DHT22;46780;48.128;-1.704;2023-07-02T07:59:29;18.30;97.10
60909;DHT22;46780;48.128;-1.704;2023-07-02T08:01:56;18.40;96.40
60909;DHT22;46780;48.128;-1.704;2023-07-02T08:04:23;18.50;95.50
60909;DHT22;46780;48.128;-1.704;2023-07-02T08:06:49;18.80;94.30
60909;DHT22;46780;48.128;-1.704;2023-07-02T08:09:16;19.10;92.90
60909;DHT22;46780;48.128;-1.704;2023-07-02T08:11:44;19.40;90.30
60909;DHT22;46780;48.128;-1.704;2023-07-02T08:14:11;19.60;87.90
60909;DHT22;46780;48.128;-1.704;2023-07-02T08:16:38;19.80;85.70
60909;DHT22;46780;48.128;-1.704;2023-07-02T08:19:04;20.00;82.80
60909;DHT22;46780;48.128;-1.704;2023-07-02T08:21:31;20.20;79.20
60909;DHT22;46780;48.128;-1.704;2023-07-02T08:23:57;20.30;78.80
60909;DHT22;46780;48.128;-1.704;2023-07-02T08:26:24;20.30;78.50
60909;DHT22;46780;48.128;-1.704;2023-07-02T08:28:52;20.30;75.70
60909;DHT22;46780;48.128;-1.704;2023-07-02T08:31:18;20.20;72.60
60909;DHT22;46780;48.128;-1.704;2023-07-02T08:33:46;20.20;72.30
60909;DHT22;46780;48.128;-1.704;2023-07-02T08:36:12;20.10;72.90
60909;DHT22;46780;48.128;-1.704;2023-07-02T08:38:39;20.00;72.60
60909;DHT22;46780;48.128;-1.704;2023-07-02T08:41:06;20.00;73.20
60909;DHT22;46780;48.128;-1.704;2023-07-02T08:43:33;20.10;72.80
60909;DHT22;46780;48.128;-1.704;2023-07-02T08:46:01;20.30;71.30
60909;DHT22;46780;48.128;-1.704;2023-07-02T08:48:28;20.50;68.30
60909;DHT22;46780;48.128;-1.704;2023-07-02T08:50:55;20.80;66.70
60909;DHT22;46780;48.128;-1.704;2023-07-02T08:53:22;21.00;64.30
60909;DHT22;46780;48.128;-1.704;2023-07-02T08:55:48;21.10;63.60
60909;DHT22;46780;48.128;-1.704;2023-07-02T08:58:15;21.20;62.20
60909;DHT22;46780;48.128;-1.704;2023-07-02T09:01:07;21.30;61.60
60909;DHT22;46780;48.128;-1.704;2023-07-02T09:03:34;21.40;60.80
60909;DHT22;46780;48.128;-1.704;2023-07-02T09:06:00;21.40;61.10
60909;DHT22;46780;48.128;-1.704;2023-07-02T09:08:28;21.40;60.70
60909;DHT22;46780;48.128;-1.704;2023-07-02T09:10:54;21.20;60.70
60909;DHT22;46780;48.128;-1.704;2023-07-02T09:13:21;21.10;61.90
60909;DHT22;46780;48.128;-1.704;2023-07-02T09:15:49;21.00;61.70
60909;DHT22;46780;48.128;-1.704;2023-07-02T09:18:19;21.00;61.80
60909;DHT22;46780;48.128;-1.704;2023-07-02T09:20:46;21.10;61.10
60909;DHT22;46780;48.128;-1.704;2023-07-02T09:23:15;21.20;60.10
60909;DHT22;46780;48.128;-1.704;2023-07-02T09:25:43;21.50;58.70
60909;DHT22;46780;48.128;-1.704;2023-07-02T09:28:33;22.10;55.90
60909;DHT22;46780;48.128;-1.704;2023-07-02T09:30:59;22.40;53.60
60909;DHT22;46780;48.128;-1.704;2023-07-02T09:33:30;22.30;52.90
60909;DHT22;46780;48.128;-1.704;2023-07-02T09:35:57;22.20;53.60
60909;DHT22;46780;48.128;-1.704;2023-07-02T09:38:24;21.90;54.80
60909;DHT22;46780;48.128;-1.704;2023-07-02T09:40:52;21.70;56.70
60909;DHT22;46780;48.128;-1.704;2023-07-02T09:43:19;21.70;58.00
60909;DHT22;46780;48.128;-1.704;2023-07-02T09:45:47;21.70;57.90
60909;DHT22;46780;48.128;-1.704;2023-07-02T09:48:14;21.70;58.30
60909;DHT22;46780;48.128;-1.704;2023-07-02T09:51:01;21.80;58.10
60909;DHT22;46780;48.128;-1.704;2023-07-02T09:53:28;21.80;57.40
60909;DHT22;46780;48.128;-1.704;2023-07-02T09:55:55;21.80;57.50
60909;DHT22;46780;48.128;-1.704;2023-07-02T09:58:21;21.90;57.10
60909;DHT22;46780;48.128;-1.704;2023-07-02T10:00:50;22.10;55.90
60909;DHT22;46780;48.128;-1.704;2023-07-02T10:03:17;22.40;53.60
60909;DHT22;46780;48.128;-1.704;2023-07-02T10:06:04;22.90;52.50
60909;DHT22;46780;48.128;-1.704;2023-07-02T10:08:33;23.20;48.70
60909;DHT22;46780;48.128;-1.704;2023-07-02T10:11:10;23.40;47.30
60909;DHT22;46780;48.128;-1.704;2023-07-02T10:13:37;23.60;46.60
60909;DHT22;46780;48.128;-1.704;2023-07-02T10:16:07;23.70;46.10
60909;DHT22;46780;48.128;-1.704;2023-07-02T10:18:33;23.70;46.20
60909;DHT22;46780;48.128;-1.704;2023-07-02T10:21:00;23.70;45.00
60909;DHT22;46780;48.128;-1.704;2023-07-02T10:23:40;23.70;44.80
60909;DHT22;46780;48.128;-1.704;2023-07-02T10:26:15;23.70;45.40
60909;DHT22;46780;48.128;-1.704;2023-07-02T10:28:42;23.60;45.70
60909;DHT22;46780;48.128;-1.704;2023-07-02T10:31:20;23.50;46.00
60909;DHT22;46780;48.128;-1.704;2023-07-02T10:33:47;23.40;45.80
60909;DHT22;46780;48.128;-1.704;2023-07-02T10:36:20;23.70;44.70
60909;DHT22;46780;48.128;-1.704;2023-07-02T10:38:49;23.90;43.80
60909;DHT22;46780;48.128;-1.704;2023-07-02T10:41:25;24.20;42.90
60909;DHT22;46780;48.128;-1.704;2023-07-02T10:43:52;24.60;42.10
60909;DHT22;46780;48.128;-1.704;2023-07-02T10:46:20;24.90;40.40
60909;DHT22;46780;48.128;-1.704;2023-07-02T10:48:53;24.90;40.10
60909;DHT22;46780;48.128;-1.704;2023-07-02T10:51:20;25.00;40.20
60909;DHT22;46780;48.128;-1.704;2023-07-02T10:53:57;25.30;40.30
60909;DHT22;46780;48.128;-1.704;2023-07-02T10:56:23;25.30;39.60
60909;DHT22;46780;48.128;-1.704;2023-07-02T10:58:50;25.20;39.50
60909;DHT22;46780;48.128;-1.704;2023-07-02T11:01:22;25.20;39.70
60909;DHT22;46780;48.128;-1.704;2023-07-02T11:03:58;25.10;39.60
60909;DHT22;46780;48.128;-1.704;2023-07-02T11:06:25;25.00;40.10
60909;DHT22;46780;48.128;-1.704;2023-07-02T11:08:52;24.80;40.20
60909;DHT22;46780;48.128;-1.704;2023-07-02T11:11:20;24.70;40.40
60909;DHT22;46780;48.128;-1.704;2023-07-02T11:13:48;24.80;40.60
60909;DHT22;46780;48.128;-1.704;2023-07-02T11:16:22;24.90;40.40
60909;DHT22;46780;48.128;-1.704;2023-07-02T11:18:49;25.10;41.30
60909;DHT22;46780;48.128;-1.704;2023-07-02T11:21:16;24.90;39.90
60909;DHT22;46780;48.128;-1.704;2023-07-02T11:23:42;24.60;40.80
60909;DHT22;46780;48.128;-1.704;2023-07-02T11:26:09;24.30;41.30
60909;DHT22;46780;48.128;-1.704;2023-07-02T11:28:48;24.10;42.30
60909;DHT22;46780;48.128;-1.704;2023-07-02T11:31:24;23.90;43.00
60909;DHT22;46780;48.128;-1.704;2023-07-02T11:33:51;24.00;43.20
60909;DHT22;46780;48.128;-1.704;2023-07-02T11:36:20;24.20;43.40
60909;DHT22;46780;48.128;-1.704;2023-07-02T11:38:48;24.60;43.10
60909;DHT22;46780;48.128;-1.704;2023-07-02T11:41:15;24.60;40.50
60909;DHT22;46780;48.128;-1.704;2023-07-02T11:43:43;24.30;40.10
60909;DHT22;46780;48.128;-1.704;2023-07-02T11:46:09;23.90;41.30
60909;DHT22;46780;48.128;-1.704;2023-07-02T11:48:36;23.60;42.40
60909;DHT22;46780;48.128;-1.704;2023-07-02T11:51:02;23.30;43.50
60909;DHT22;46780;48.128;-1.704;2023-07-02T11:53:29;23.20;44.40
60909;DHT22;46780;48.128;-1.704;2023-07-02T11:55:55;23.10;44.70
60909;DHT22;46780;48.128;-1.704;2023-07-02T11:58:22;22.90;44.70
60909;DHT22;46780;48.128;-1.704;2023-07-02T12:00:50;22.70;45.20
60909;DHT22;46780;48.128;-1.704;2023-07-02T12:03:16;22.70;45.70
60909;DHT22;46780;48.128;-1.704;2023-07-02T12:05:42;22.80;45.70
60909;DHT22;46780;48.128;-1.704;2023-07-02T12:08:09;22.80;45.70
60909;DHT22;46780;48.128;-1.704;2023-07-02T12:10:35;22.90;45.80
60909;DHT22;46780;48.128;-1.704;2023-07-02T12:13:02;22.90;45.60
60909;DHT22;46780;48.128;-1.704;2023-07-02T12:15:28;23.00;45.70
60909;DHT22;46780;48.128;-1.704;2023-07-02T12:17:56;23.00;45.90
60909;DHT22;46780;48.128;-1.704;2023-07-02T12:20:23;23.00;46.10
60909;DHT22;46780;48.128;-1.704;2023-07-02T12:22:49;22.90;46.30
60909;DHT22;46780;48.128;-1.704;2023-07-02T12:25:16;22.80;46.70
60909;DHT22;46780;48.128;-1.704;2023-07-02T12:27:43;22.70;46.80
60909;DHT22;46780;48.128;-1.704;2023-07-02T12:30:10;22.40;47.40
60909;DHT22;46780;48.128;-1.704;2023-07-02T12:32:38;22.30;48.00
60909;DHT22;46780;48.128;-1.704;2023-07-02T12:35:07;22.20;48.50
60909;DHT22;46780;48.128;-1.704;2023-07-02T12:37:33;22.00;48.70
60909;DHT22;46780;48.128;-1.704;2023-07-02T12:40:00;21.70;49.80
60909;DHT22;46780;48.128;-1.704;2023-07-02T12:42:27;21.50;50.50
60909;DHT22;46780;48.128;-1.704;2023-07-02T12:44:53;21.60;50.50
60909;DHT22;46780;48.128;-1.704;2023-07-02T12:47:20;21.80;50.20
60909;DHT22;46780;48.128;-1.704;2023-07-02T12:49:46;21.90;50.00
60909;DHT22;46780;48.128;-1.704;2023-07-02T12:52:14;22.20;49.60
60909;DHT22;46780;48.128;-1.704;2023-07-02T12:54:40;22.50;49.10
60909;DHT22;46780;48.128;-1.704;2023-07-02T12:57:07;22.70;48.50
60909;DHT22;46780;48.128;-1.704;2023-07-02T12:59:33;22.90;48.50
60909;DHT22;46780;48.128;-1.704;2023-07-02T13:02:00;22.90;48.00
60909;DHT22;46780;48.128;-1.704;2023-07-02T13:04:26;22.80;48.50
60909;DHT22;46780;48.128;-1.704;2023-07-02T13:06:53;22.70;48.50
60909;DHT22;46780;48.128;-1.704;2023-07-02T13:09:20;22.60;49.00
60909;DHT22;46780;48.128;-1.704;2023-07-02T13:11:47;22.60;48.50
60909;DHT22;46780;48.128;-1.704;2023-07-02T13:14:13;22.70;48.50
60909;DHT22;46780;48.128;-1.704;2023-07-02T13:16:40;22.90;48.50
60909;DHT22;46780;48.128;-1.704;2023-07-02T13:19:06;23.20;48.20
60909;DHT22;46780;48.128;-1.704;2023-07-02T13:21:33;23.40;47.60
60909;DHT22;46780;48.128;-1.704;2023-07-02T13:23:59;23.50;47.10
60909;DHT22;46780;48.128;-1.704;2023-07-02T13:26:27;23.60;46.70
60909;DHT22;46780;48.128;-1.704;2023-07-02T13:28:54;23.50;46.70
60909;DHT22;46780;48.128;-1.704;2023-07-02T13:31:20;23.50;46.80
60909;DHT22;46780;48.128;-1.704;2023-07-02T13:33:47;23.20;46.80
60909;DHT22;46780;48.128;-1.704;2023-07-02T13:36:13;22.90;47.50
60909;DHT22;46780;48.128;-1.704;2023-07-02T13:38:40;22.80;48.40
60909;DHT22;46780;48.128;-1.704;2023-07-02T13:41:06;22.70;48.70
60909;DHT22;46780;48.128;-1.704;2023-07-02T13:43:34;22.50;48.70
60909;DHT22;46780;48.128;-1.704;2023-07-02T13:46:01;22.40;49.30
60909;DHT22;46780;48.128;-1.704;2023-07-02T13:48:28;22.30;49.80
60909;DHT22;46780;48.128;-1.704;2023-07-02T13:50:54;22.20;50.20
60909;DHT22;46780;48.128;-1.704;2023-07-02T13:53:21;22.20;50.70
60909;DHT22;46780;48.128;-1.704;2023-07-02T13:55:47;22.10;50.90
60909;DHT22;46780;48.128;-1.704;2023-07-02T13:58:14;22.20;50.90
60909;DHT22;46780;48.128;-1.704;2023-07-02T14:00:41;22.30;50.60
60909;DHT22;46780;48.128;-1.704;2023-07-02T14:03:08;22.50;50.20
60909;DHT22;46780;48.128;-1.704;2023-07-02T14:05:34;22.60;50.10
60909;DHT22;46780;48.128;-1.704;2023-07-02T14:08:01;22.60;50.20
60909;DHT22;46780;48.128;-1.704;2023-07-02T14:10:27;22.60;50.10
60909;DHT22;46780;48.128;-1.704;2023-07-02T14:12:54;22.60;50.20
60909;DHT22;46780;48.128;-1.704;2023-07-02T14:15:21;22.70;50.10
60909;DHT22;46780;48.128;-1.704;2023-07-02T14:17:49;22.80;49.80
60909;DHT22;46780;48.128;-1.704;2023-07-02T14:20:15;22.90;49.70
60909;DHT22;46780;48.128;-1.704;2023-07-02T14:22:42;22.90;49.40
60909;DHT22;46780;48.128;-1.704;2023-07-02T14:25:09;22.90;49.60
60909;DHT22;46780;48.128;-1.704;2023-07-02T14:27:35;22.90;49.60
60909;DHT22;46780;48.128;-1.704;2023-07-02T14:30:02;22.90;49.70
60909;DHT22;46780;48.128;-1.704;2023-07-02T14:32:28;22.80;50.00
60909;DHT22;46780;48.128;-1.704;2023-07-02T14:34:56;22.70;50.10
60909;DHT22;46780;48.128;-1.704;2023-07-02T14:37:22;22.50;50.70
60909;DHT22;46780;48.128;-1.704;2023-07-02T14:39:49;22.30;51.50
60909;DHT22;46780;48.128;-1.704;2023-07-02T14:42:15;22.20;52.20
60909;DHT22;46780;48.128;-1.704;2023-07-02T14:44:42;22.00;52.50
60909;DHT22;46780;48.128;-1.704;2023-07-02T14:47:08;22.00;53.00
60909;DHT22;46780;48.128;-1.704;2023-07-02T14:49:34;21.90;53.30
60909;DHT22;46780;48.128;-1.704;2023-07-02T14:52:03;21.80;53.80
60909;DHT22;46780;48.128;-1.704;2023-07-02T14:54:30;21.80;54.00
60909;DHT22;46780;48.128;-1.704;2023-07-02T14:56:56;21.70;54.30
60909;DHT22;46780;48.128;-1.704;2023-07-02T14:59:23;21.60;54.70
60909;DHT22;46780;48.128;-1.704;2023-07-02T15:01:49;21.60;55.40
60909;DHT22;46780;48.128;-1.704;2023-07-02T15:04:16;21.60;55.70
60909;DHT22;46780;48.128;-1.704;2023-07-02T15:06:42;21.70;56.00
60909;DHT22;46780;48.128;-1.704;2023-07-02T15:09:10;21.80;55.80
60909;DHT22;46780;48.128;-1.704;2023-07-02T15:11:36;21.90;55.70
60909;DHT22;46780;48.128;-1.704;2023-07-02T15:14:03;21.90;55.50
60909;DHT22;46780;48.128;-1.704;2023-07-02T15:16:29;22.10;55.20